OIFK  Kashan  Airport

Iran

Add Bookmark
ICAO OIFK
Type Airport
Status Operational
Latitude
33° 53' 43" N
33.895302
Longitude
51° 34' 37" E
51.577000
Local (GMT +3.5 ) UTC
Sep 27, 2016 07:04 am Sep 27, 2016 03:34
Sunrise-Sunset Local UTC
Begin Civil Twilight 05:29 am 01:59
Sunrise 05:54 am 02:24
Sunset 05:54 pm 14:24
End Civil Twilight 06:19 pm 14:49
VFR
VFR
MVFR
MVFR
IFR
IFR
LIFR
LIFR
Unknown
Unavailable

Current Weather

METAR Observed VFR
OIFK 270200Z 21004KT CAVOK 20/01 Q1015 Tue, Sep 27, 2016 @ 02:00 UTC
(1 Hour, 34 Minutes ago)
Visual Flight Rules
Wind Visibility Conditions
210° at 4 knots (7 kph) 10 km or more
  • No significant weather
Temperatures Readings Precipitation
Current Temp
20°C
68°F
Dewpoint
1°C
34°F
Humidity 28%
Altimeter 29.97" Hg
Sea Level Pressure 1,015 mb
Field Elevation
982 m
3,222 ft
None Recorded
-
-

CheckWX.com is intended as a tool to help pilots better visualize weather data. It is not intended as a substitute for an official weather briefing obtained from a Flight Service Station. CheckWX.com does not meet the FAA requirements for an official pre-flight weather briefing. Therefore, it's important that pilots still call and obtain an official FSS pre-flight weather briefing.

© 2007-2016 CheckWX.com
03:34:09 UTC